Time;durP1;ratioP1;P1;durP2;ratioP2;P2;SDS_P1;SDS_P2;PMS_P1;PMS_P2;Temp;Humidity;BMP_temperature;BMP_pressure;BME280_temperature;BME280_humidity;BME280_pressure;Samples;Min_cycle;Max_cycle;Signal;HPM_P1;HPM_P2
2021/12/05 00:18:32;;;;;;;0.30;0.22;;;;;;;;;;4182576;28;20406;-41
2021/12/05 00:21:15;;;;;;;0.17;0.17;;;;;;;;;;4182997;28;20060;-40
2021/12/05 00:23:19;;;;;;;0.20;0.20;;;;;;;;;;4182053;28;20065;-39
2021/12/05 00:25:27;;;;;;;0.20;0.20;;;;;;;;;;4182990;28;20114;-41
2021/12/05 00:27:35;;;;;;;0.45;0.28;;;;;;;;;;4182504;28;20076;-41
2021/12/05 00:29:45;;;;;;;0.50;0.30;;;;;;;;;;4182818;28;20103;-38
2021/12/05 00:31:58;;;;;;;0.38;0.38;;;;;;;;;;4181259;28;20107;-40
2021/12/05 00:34:26;;;;;;;0.20;0.20;;;;;;;;;;4182603;28;20102;-38
2021/12/05 00:39:21;;;;;;;0.20;0.20;;;;;;;;;;4164143;28;20182;-40
2021/12/05 00:53:34;;;;;;;0.35;0.20;;;;;;;;;;4180242;28;20068;-37
2021/12/05 01:00:25;;;;;;;0.30;0.30;;;;;;;;;;4164419;28;20057;-40
2021/12/05 01:11:48;;;;;;;0.20;0.20;;;;;;;;;;4182012;28;20064;-40
2021/12/05 01:16:07;;;;;;;0.20;0.20;;;;;;;;;;4164115;28;20154;-42
2021/12/05 01:18:13;;;;;;;0.20;0.20;;;;;;;;;;4181840;28;20057;-40
2021/12/05 01:20:19;;;;;;;0.35;0.30;;;;;;;;;;4164058;28;20061;-41
2021/12/05 01:22:27;;;;;;;0.52;0.20;;;;;;;;;;4180537;28;20061;-39
2021/12/05 01:31:05;;;;;;;0.35;0.30;;;;;;;;;;4181731;28;20053;-41
2021/12/05 01:33:19;;;;;;;0.57;0.20;;;;;;;;;;4181417;28;20126;-41
2021/12/05 01:51:49;;;;;;;0.20;0.20;;;;;;;;;;4181520;28;20057;-41
2021/12/05 01:54:05;;;;;;;0.40;0.30;;;;;;;;;;4162087;28;20107;-39
2021/12/05 02:01:30;;;;;;;0.63;0.20;;;;;;;;;;4179930;28;20061;-39
2021/12/05 02:10:45;;;;;;;0.50;0.30;;;;;;;;;;4181071;28;20087;-40
2021/12/05 02:30:59;;;;;;;0.20;0.20;;;;;;;;;;4180752;28;20011;-41
2021/12/05 02:35:19;;;;;;;0.30;0.30;;;;;;;;;;4179492;28;20057;-41
2021/12/05 02:39:34;;;;;;;0.25;0.20;;;;;;;;;;4178928;28;20126;-42
2021/12/05 02:41:43;;;;;;;0.10;0.10;;;;;;;;;;4180890;28;20107;-41
2021/12/05 02:43:56;;;;;;;0.50;0.20;;;;;;;;;;4180642;28;20061;-41
2021/12/05 02:46:01;;;;;;;0.25;0.20;;;;;;;;;;4163053;28;20115;-39
2021/12/05 02:48:02;;;;;;;0.20;0.20;;;;;;;;;;4180029;28;20103;-43
2021/12/05 02:50:08;;;;;;;0.30;0.30;;;;;;;;;;4179410;28;20570;-40
2021/12/05 02:52:13;;;;;;;0.20;0.20;;;;;;;;;;4162909;28;20054;-41
2021/12/05 02:54:16;;;;;;;0.30;0.20;;;;;;;;;;4180248;28;20057;-41
2021/12/05 02:56:19;;;;;;;0.40;0.30;;;;;;;;;;4180448;28;20426;-38
2021/12/05 02:58:42;;;;;;;0.25;0.25;;;;;;;;;;4162710;28;20054;-41
2021/12/05 03:02:54;;;;;;;0.20;0.20;;;;;;;;;;4163060;28;20061;-39
2021/12/05 03:04:59;;;;;;;0.10;0.10;;;;;;;;;;4180692;28;20056;-40
2021/12/05 03:07:05;;;;;;;0.25;0.25;;;;;;;;;;4180583;28;20053;-40
2021/12/05 03:09:13;;;;;;;0.17;0.15;;;;;;;;;;4162086;28;20511;-41
2021/12/05 03:11:16;;;;;;;0.10;0.10;;;;;;;;;;4155277;28;20057;-38
2021/12/05 03:13:17;;;;;;;0.20;0.10;;;;;;;;;;4163901;28;20054;-41
2021/12/05 03:15:19;;;;;;;0.10;0.10;;;;;;;;;;4146449;28;20061;-43
2021/12/05 03:17:23;;;;;;;0.20;0.20;;;;;;;;;;4164825;28;20104;-41
2021/12/05 03:19:24;;;;;;;0.10;0.10;;;;;;;;;;4149549;28;20391;-39
2021/12/05 03:21:26;;;;;;;0.10;0.10;;;;;;;;;;4167192;28;20050;-41
2021/12/05 03:23:28;;;;;;;0.10;0.10;;;;;;;;;;4148802;28;20054;-42
2021/12/05 03:25:30;;;;;;;0.15;0.15;;;;;;;;;;4166985;28;20065;-38
2021/12/05 03:27:36;;;;;;;0.63;0.30;;;;;;;;;;4149222;28;20049;-38
2021/12/05 03:29:38;;;;;;;0.45;0.30;;;;;;;;;;4149699;28;20053;-37
2021/12/05 03:31:39;;;;;;;0.13;0.13;;;;;;;;;;4117113;28;20401;-41
2021/12/05 03:33:40;;;;;;;0.28;0.20;;;;;;;;;;4165657;28;20057;-42
2021/12/05 03:35:42;;;;;;;0.20;0.20;;;;;;;;;;4149432;28;20092;-41
2021/12/05 03:37:43;;;;;;;0.15;0.15;;;;;;;;;;4148669;28;20379;-42
2021/12/05 03:39:44;;;;;;;0.10;0.10;;;;;;;;;;4166917;28;20123;-39
2021/12/05 03:41:52;;;;;;;0.75;0.20;;;;;;;;;;4149229;28;20121;-40
2021/12/05 03:43:55;;;;;;;0.20;0.20;;;;;;;;;;4165463;28;20053;-41
2021/12/05 03:45:58;;;;;;;0.20;0.20;;;;;;;;;;4165799;28;20091;-41
2021/12/05 03:48:01;;;;;;;0.10;0.10;;;;;;;;;;4148964;28;20501;-42
2021/12/05 03:50:09;;;;;;;0.20;0.20;;;;;;;;;;4165543;28;20053;-41
2021/12/05 03:52:13;;;;;;;0.30;0.30;;;;;;;;;;4162784;28;20061;-39
2021/12/05 03:54:15;;;;;;;0.20;0.20;;;;;;;;;;4181389;28;20061;-43
2021/12/05 03:56:16;;;;;;;0.20;0.20;;;;;;;;;;4183157;28;20060;-40
2021/12/05 03:58:18;;;;;;;0.80;0.20;;;;;;;;;;4171446;28;20478;-39
2021/12/05 04:00:25;;;;;;;0.10;0.10;;;;;;;;;;4165477;28;20139;-40
2021/12/05 04:02:28;;;;;;;0.28;0.20;;;;;;;;;;4165325;28;20116;-40
2021/12/05 04:04:30;;;;;;;0.15;0.15;;;;;;;;;;4165205;28;20095;-42
2021/12/05 04:06:31;;;;;;;0.25;0.17;;;;;;;;;;4132793;28;20503;-39
2021/12/05 04:08:34;;;;;;;0.20;0.20;;;;;;;;;;4164522;28;20189;-41
2021/12/05 04:10:42;;;;;;;0.32;0.20;;;;;;;;;;4149095;28;20058;-41
2021/12/05 04:12:46;;;;;;;;;;;;;;;;;;4149618;28;20050;-40
2021/12/05 04:14:54;;;;;;;0.40;0.10;;;;;;;;;;4165482;28;19962;-42
2021/12/05 04:16:56;;;;;;;0.22;0.17;;;;;;;;;;4149049;28;20092;-40
2021/12/05 04:18:58;;;;;;;0.30;0.30;;;;;;;;;;4166179;28;20057;-42
2021/12/05 04:21:00;;;;;;;0.10;0.10;;;;;;;;;;4148600;28;20100;-41
2021/12/05 04:23:01;;;;;;;0.30;0.20;;;;;;;;;;4165442;28;20398;-43
2021/12/05 04:25:08;;;;;;;0.17;0.10;;;;;;;;;;4165319;28;20092;-41
2021/12/05 04:27:09;;;;;;;0.22;0.20;;;;;;;;;;4165162;28;20055;-42
2021/12/05 04:29:11;;;;;;;0.20;0.20;;;;;;;;;;4163955;28;20068;-41
2021/12/05 04:31:14;;;;;;;0.20;0.20;;;;;;;;;;4150035;28;20066;-40
2021/12/05 04:33:15;;;;;;;0.20;0.20;;;;;;;;;;4148322;28;20058;-39
2021/12/05 04:35:17;;;;;;;0.20;0.20;;;;;;;;;;4194030;28;20101;-38
2021/12/05 04:37:19;;;;;;;0.15;0.15;;;;;;;;;;4164803;28;20489;-41
2021/12/05 04:39:20;;;;;;;0.30;0.20;;;;;;;;;;4180660;28;20505;-40
2021/12/05 04:41:23;;;;;;;0.52;0.25;;;;;;;;;;4198987;28;20385;-41
2021/12/05 04:43:24;;;;;;;0.17;0.17;;;;;;;;;;4197795;28;20064;-39
2021/12/05 04:45:29;;;;;;;0.20;0.15;;;;;;;;;;4199160;28;20063;-42
2021/12/05 04:47:33;;;;;;;2.15;0.32;;;;;;;;;;4197814;28;20063;-39
2021/12/05 04:49:40;;;;;;;0.10;0.10;;;;;;;;;;4197686;28;20060;-40
2021/12/05 04:51:45;;;;;;;0.35;0.30;;;;;;;;;;4181292;28;20135;-38
2021/12/05 04:53:48;;;;;;;0.20;0.20;;;;;;;;;;4196999;28;20156;-39
2021/12/05 04:55:54;;;;;;;0.40;0.30;;;;;;;;;;4197525;28;20428;-41
2021/12/05 04:57:57;;;;;;;0.10;0.10;;;;;;;;;;4180891;28;20048;-42
2021/12/05 04:59:58;;;;;;;0.10;0.10;;;;;;;;;;4197502;28;20119;-39
2021/12/05 05:01:59;;;;;;;0.10;0.10;;;;;;;;;;4181040;28;20052;-40
2021/12/05 05:04:03;;;;;;;0.22;0.20;;;;;;;;;;4198537;28;20057;-42
2021/12/05 05:06:17;;;;;;;0.30;0.20;;;;;;;;;;4198521;28;20079;-40
2021/12/05 05:08:19;;;;;;;0.22;0.20;;;;;;;;;;4198000;28;20044;-42
2021/12/05 05:10:24;;;;;;;0.32;0.30;;;;;;;;;;4180691;28;20813;-41
2021/12/05 05:12:25;;;;;;;0.22;0.20;;;;;;;;;;4198582;28;20061;-39
2021/12/05 05:14:27;;;;;;;0.10;0.10;;;;;;;;;;4198415;28;20458;-40
2021/12/05 05:16:28;;;;;;;0.10;0.10;;;;;;;;;;4198616;28;20102;-41
2021/12/05 05:18:37;;;;;;;0.43;0.28;;;;;;;;;;4198161;28;20056;-41
2021/12/05 05:22:51;;;;;;;0.10;0.10;;;;;;;;;;4197632;28;20052;-39
2021/12/05 05:43:29;;;;;;;0.20;0.10;;;;;;;;;;4197862;28;19928;-41
2021/12/05 05:45:49;;;;;;;0.20;0.20;;;;;;;;;;4197957;28;20056;-40
2021/12/05 05:50:00;;;;;;;0.28;0.17;;;;;;;;;;4197923;28;20105;-39
2021/12/05 05:52:03;;;;;;;0.10;0.10;;;;;;;;;;4180172;28;20425;-42
2021/12/05 05:54:05;;;;;;;0.13;0.13;;;;;;;;;;4197594;28;20061;-38
2021/12/05 05:56:16;;;;;;;0.10;0.10;;;;;;;;;;4197825;28;20377;-38
2021/12/05 05:58:20;;;;;;;0.20;0.10;;;;;;;;;;4197568;28;20499;-39
2021/12/05 06:00:34;;;;;;;0.30;0.30;;;;;;;;;;4197718;28;20385;-39
2021/12/05 06:04:55;;;;;;;0.28;0.28;;;;;;;;;;4197614;28;20065;-40
2021/12/05 06:06:56;;;;;;;0.10;0.10;;;;;;;;;;4197829;28;20110;-40
2021/12/05 06:08:58;;;;;;;0.20;0.20;;;;;;;;;;4196964;28;20057;-41
2021/12/05 06:11:03;;;;;;;0.25;0.20;;;;;;;;;;4197432;28;20174;-41
2021/12/05 06:13:05;;;;;;;0.10;0.10;;;;;;;;;;4179954;28;20090;-40
2021/12/05 06:15:09;;;;;;;0.47;0.20;;;;;;;;;;4197545;28;20063;-41
2021/12/05 06:17:10;;;;;;;0.20;0.20;;;;;;;;;;4197498;28;20056;-41
2021/12/05 06:19:12;;;;;;;0.30;0.20;;;;;;;;;;4197361;28;20083;-41
2021/12/05 06:21:15;;;;;;;0.17;0.17;;;;;;;;;;4197504;28;20377;-41
2021/12/05 06:23:16;;;;;;;0.10;0.10;;;;;;;;;;4196727;28;20065;-40
2021/12/05 06:25:22;;;;;;;0.38;0.17;;;;;;;;;;4197560;28;20052;-42
2021/12/05 06:27:23;;;;;;;0.20;0.20;;;;;;;;;;4197393;28;20052;-42
2021/12/05 06:29:26;;;;;;;0.28;0.10;;;;;;;;;;4197254;28;20053;-37
2021/12/05 06:31:47;;;;;;;0.10;0.10;;;;;;;;;;4197342;28;20056;-38
2021/12/05 06:42:55;;;;;;;;;;;;;;;;;;4197773;28;20060;-42
2021/12/05 06:47:19;;;;;;;0.10;0.10;;;;;;;;;;4197221;28;20106;-39
2021/12/05 06:49:20;;;;;;;0.25;0.25;;;;;;;;;;4197060;28;20101;-38
2021/12/05 06:51:25;;;;;;;0.08;0.08;;;;;;;;;;4199032;28;20056;-40
2021/12/05 06:53:26;;;;;;;0.20;0.20;;;;;;;;;;4184473;28;20056;-38
2021/12/05 06:55:27;;;;;;;0.10;0.10;;;;;;;;;;4202817;28;20052;-38
2021/12/05 06:57:28;;;;;;;0.30;0.30;;;;;;;;;;4202561;28;20056;-42
2021/12/05 06:59:30;;;;;;;0.10;0.10;;;;;;;;;;4202725;28;20045;-39
2021/12/05 07:01:31;;;;;;;0.10;0.10;;;;;;;;;;4202990;28;20057;-41
2021/12/05 07:03:33;;;;;;;0.10;0.10;;;;;;;;;;4202853;28;20198;-39
2021/12/05 07:05:45;;;;;;;0.20;0.20;;;;;;;;;;4198327;28;20057;-39
2021/12/05 07:07:47;;;;;;;0.13;0.13;;;;;;;;;;4185584;28;20095;-39
2021/12/05 07:09:49;;;;;;;0.10;0.10;;;;;;;;;;4185994;28;20102;-43
2021/12/05 07:12:12;;;;;;;0.10;0.10;;;;;;;;;;4168470;28;20057;-42
2021/12/05 07:16:47;;;;;;;0.20;0.20;;;;;;;;;;4185911;28;20057;-41
2021/12/05 07:25:45;;;;;;;0.10;0.10;;;;;;;;;;4185919;28;20053;-37
2021/12/05 07:43:46;;;;;;;0.10;0.10;;;;;;;;;;4178715;28;20057;-40
2021/12/05 07:45:56;;;;;;;0.10;0.10;;;;;;;;;;4169105;28;20058;-41
2021/12/05 07:48:01;;;;;;;0.20;0.20;;;;;;;;;;4169051;28;20379;-41
2021/12/05 07:50:09;;;;;;;0.10;0.10;;;;;;;;;;4169466;28;20053;-39
2021/12/05 07:52:15;;;;;;;0.10;0.10;;;;;;;;;;4169518;28;20099;-39
2021/12/05 07:56:40;;;;;;;0.40;0.30;;;;;;;;;;4169205;28;20091;-41
2021/12/05 08:15:07;;;;;;;;;;;;;;;;;;4167086;28;20087;-38
2021/12/05 08:17:16;;;;;;;0.20;0.20;;;;;;;;;;4166318;28;19921;-43
2021/12/05 08:19:18;;;;;;;0.20;0.20;;;;;;;;;;4166726;28;20049;-41
2021/12/05 08:21:20;;;;;;;0.20;0.20;;;;;;;;;;4166180;28;20061;-42
2021/12/05 08:23:23;;;;;;;0.15;0.13;;;;;;;;;;4165296;28;20061;-41
2021/12/05 08:25:27;;;;;;;0.35;0.30;;;;;;;;;;4166227;28;20049;-41
2021/12/05 08:27:29;;;;;;;0.10;0.10;;;;;;;;;;4166170;28;20390;-39
2021/12/05 08:29:42;;;;;;;0.10;0.10;;;;;;;;;;4165953;28;20058;-36
2021/12/05 08:40:53;;;;;;;0.20;0.20;;;;;;;;;;4166097;28;20378;-42
2021/12/05 09:21:03;;;;;;;0.30;0.20;;;;;;;;;;4165455;28;20061;-41
2021/12/05 09:24:38;;;;;;;0.28;0.10;;;;;;;;;;4154016;28;20061;-38
2021/12/05 09:27:07;;;;;;;0.13;0.13;;;;;;;;;;4166805;28;20064;-42
2021/12/05 09:29:35;;;;;;;0.20;0.20;;;;;;;;;;4181483;28;20049;-38
2021/12/05 09:39:29;;;;;;;;;;;;;;;;;;4164984;28;20056;-41
2021/12/05 10:13:35;;;;;;;0.20;0.20;;;;;;;;;;4181017;28;20061;-41
2021/12/05 10:16:20;;;;;;;0.30;0.30;;;;;;;;;;4180894;28;20061;-41
2021/12/05 10:26:19;;;;;;;0.20;0.20;;;;;;;;;;4180810;28;20064;-41
2021/12/05 10:37:20;;;;;;;0.17;0.17;;;;;;;;;;4180764;28;20061;-38
2021/12/05 10:39:23;;;;;;;0.13;0.13;;;;;;;;;;4180145;28;20114;-41
2021/12/05 10:43:33;;;;;;;1.08;0.20;;;;;;;;;;4180437;28;20114;-42
2021/12/05 10:45:39;;;;;;;0.10;0.10;;;;;;;;;;4180578;28;20060;-40
2021/12/05 10:47:42;;;;;;;0.10;0.10;;;;;;;;;;4180900;28;20540;-40
2021/12/05 10:49:44;;;;;;;0.15;0.13;;;;;;;;;;4180604;28;20485;-40
2021/12/05 10:51:57;;;;;;;0.10;0.10;;;;;;;;;;4181233;28;20060;-42
2021/12/05 10:54:19;;;;;;;0.10;0.10;;;;;;;;;;4180288;28;20057;-40
2021/12/05 10:56:27;;;;;;;0.45;0.30;;;;;;;;;;4180867;28;20061;-40
2021/12/05 10:58:38;;;;;;;0.40;0.20;;;;;;;;;;4180606;28;20053;-38
2021/12/05 11:00:39;;;;;;;0.10;0.10;;;;;;;;;;4180681;28;20084;-41
2021/12/05 11:02:40;;;;;;;0.20;0.10;;;;;;;;;;4180608;28;20111;-41
2021/12/05 11:04:45;;;;;;;0.20;0.20;;;;;;;;;;4180407;28;20057;-39
2021/12/05 11:06:53;;;;;;;0.50;0.20;;;;;;;;;;4180703;28;20057;-38
2021/12/05 11:09:10;;;;;;;0.30;0.15;;;;;;;;;;4179703;28;20393;-41
2021/12/05 11:11:14;;;;;;;0.20;0.20;;;;;;;;;;4180542;28;20083;-42
2021/12/05 11:13:29;;;;;;;0.20;0.20;;;;;;;;;;4180225;28;20123;-40
2021/12/05 11:15:34;;;;;;;0.20;0.10;;;;;;;;;;4180627;28;20409;-40
2021/12/05 11:17:39;;;;;;;0.90;0.20;;;;;;;;;;4180257;28;20390;-42
2021/12/05 11:19:42;;;;;;;0.17;0.10;;;;;;;;;;4180298;28;20061;-41
2021/12/05 11:21:48;;;;;;;0.10;0.10;;;;;;;;;;4180228;28;20053;-40
2021/12/05 11:24:11;;;;;;;0.20;0.20;;;;;;;;;;4179467;28;20065;-41
2021/12/05 11:26:17;;;;;;;0.30;0.20;;;;;;;;;;4180431;28;20482;-41
2021/12/05 11:28:24;;;;;;;0.00;0.00;;;;;;;;;;4180317;28;20122;-40
2021/12/05 11:30:31;;;;;;;0.20;0.10;;;;;;;;;;4180321;28;20061;-40
2021/12/05 11:32:39;;;;;;;0.80;0.17;;;;;;;;;;4180425;28;20099;-40
2021/12/05 11:34:41;;;;;;;0.20;0.20;;;;;;;;;;4180510;28;20445;-42
2021/12/05 11:36:42;;;;;;;0.30;0.20;;;;;;;;;;4180483;28;20057;-42
2021/12/05 11:38:43;;;;;;;0.55;0.30;;;;;;;;;;4181857;28;20057;-39
2021/12/05 11:41:11;;;;;;;0.13;0.10;;;;;;;;;;4183688;28;20489;-40
2021/12/05 11:43:16;;;;;;;0.22;0.22;;;;;;;;;;4183306;28;20133;-41
2021/12/05 11:45:17;;;;;;;0.10;0.10;;;;;;;;;;4183406;28;20481;-42
2021/12/05 11:47:20;;;;;;;0.17;0.10;;;;;;;;;;4183191;28;20049;-40
2021/12/05 11:49:24;;;;;;;0.40;0.30;;;;;;;;;;4183393;28;20053;-40
2021/12/05 11:51:34;;;;;;;0.45;0.17;;;;;;;;;;4183193;28;20065;-42
2021/12/05 11:53:57;;;;;;;0.50;0.20;;;;;;;;;;4182652;28;20422;-41
2021/12/05 11:55:58;;;;;;;0.10;0.10;;;;;;;;;;4183267;28;20386;-42
2021/12/05 11:58:00;;;;;;;0.13;0.13;;;;;;;;;;4182903;28;20052;-38
2021/12/05 12:00:14;;;;;;;0.30;0.20;;;;;;;;;;4183148;28;20095;-42
2021/12/05 12:02:18;;;;;;;0.30;0.20;;;;;;;;;;4183306;28;20053;-41
2021/12/05 12:04:22;;;;;;;0.20;0.20;;;;;;;;;;4182797;28;20057;-41
2021/12/05 12:06:23;;;;;;;0.17;0.17;;;;;;;;;;4182886;28;20409;-39
2021/12/05 12:08:24;;;;;;;1.30;0.30;;;;;;;;;;4182306;28;20053;-42
2021/12/05 12:11:01;;;;;;;0.47;0.30;;;;;;;;;;4183152;28;20057;-41
2021/12/05 12:13:18;;;;;;;0.10;0.10;;;;;;;;;;4182631;28;20060;-40
2021/12/05 12:15:22;;;;;;;0.20;0.20;;;;;;;;;;4194759;28;20060;-41
2021/12/05 12:17:24;;;;;;;0.28;0.20;;;;;;;;;;4199559;28;20111;-40
2021/12/05 12:19:26;;;;;;;0.30;0.20;;;;;;;;;;4199190;28;20049;-41
2021/12/05 12:21:38;;;;;;;1.17;0.13;;;;;;;;;;4199263;28;20056;-38
2021/12/05 12:23:40;;;;;;;0.22;0.20;;;;;;;;;;4198554;28;20385;-40
2021/12/05 12:25:42;;;;;;;0.20;0.20;;;;;;;;;;4199371;28;20052;-37
2021/12/05 12:27:46;;;;;;;0.10;0.10;;;;;;;;;;4199190;28;20061;-41
2021/12/05 12:29:48;;;;;;;0.13;0.13;;;;;;;;;;4199098;28;20480;-41
2021/12/05 12:31:51;;;;;;;0.52;0.20;;;;;;;;;;4199027;28;20522;-39
2021/12/05 12:33:55;;;;;;;0.10;0.10;;;;;;;;;;4199078;28;20550;-41
2021/12/05 12:35:57;;;;;;;1.20;0.20;;;;;;;;;;4199087;28;20150;-39
2021/12/05 12:37:58;;;;;;;0.55;0.30;;;;;;;;;;4198601;28;20544;-37
2021/12/05 12:39:59;;;;;;;0.20;0.10;;;;;;;;;;4199239;28;20110;-40
2021/12/05 12:42:00;;;;;;;0.20;0.17;;;;;;;;;;4198896;28;20060;-41
2021/12/05 12:44:04;;;;;;;0.30;0.28;;;;;;;;;;4198871;28;20061;-41
2021/12/05 12:46:32;;;;;;;0.30;0.30;;;;;;;;;;4199014;28;20520;-42
2021/12/05 12:48:33;;;;;;;0.32;0.20;;;;;;;;;;4198550;28;20060;-38
2021/12/05 12:50:51;;;;;;;0.28;0.20;;;;;;;;;;4198064;28;20057;-38
2021/12/05 12:53:37;;;;;;;0.32;0.30;;;;;;;;;;4198298;28;20072;-41
2021/12/05 12:55:50;;;;;;;0.47;0.13;;;;;;;;;;4156859;28;20049;-41
2021/12/05 12:57:51;;;;;;;0.20;0.20;;;;;;;;;;4198876;28;20098;-37
2021/12/05 13:00:15;;;;;;;0.20;0.20;;;;;;;;;;4198671;28;20484;-38
2021/12/05 13:04:56;;;;;;;0.38;0.28;;;;;;;;;;4180633;28;20060;-37
2021/12/05 13:11:55;;;;;;;0.20;0.20;;;;;;;;;;4198510;28;20056;-41
2021/12/05 13:14:03;;;;;;;0.45;0.25;;;;;;;;;;4198460;28;20059;-40
2021/12/05 13:16:19;;;;;;;0.20;0.20;;;;;;;;;;4180852;28;20053;-40
2021/12/05 13:18:30;;;;;;;0.20;0.20;;;;;;;;;;4188480;28;20053;-41
2021/12/05 13:20:40;;;;;;;0.28;0.20;;;;;;;;;;4181616;28;20087;-39
2021/12/05 13:23:00;;;;;;;0.35;0.10;;;;;;;;;;4163625;28;20407;-40
2021/12/05 13:25:06;;;;;;;0.63;0.38;;;;;;;;;;4165563;28;20065;-40
2021/12/05 13:27:10;;;;;;;1.73;0.20;;;;;;;;;;4148053;28;20088;-43
2021/12/05 13:29:22;;;;;;;0.40;0.20;;;;;;;;;;4147584;28;20410;-43
2021/12/05 13:31:32;;;;;;;0.22;0.17;;;;;;;;;;4147898;28;20049;-41
2021/12/05 13:33:33;;;;;;;0.25;0.10;;;;;;;;;;4165263;28;20065;-40
2021/12/05 13:35:36;;;;;;;0.20;0.20;;;;;;;;;;4165031;28;20103;-42
2021/12/05 13:37:48;;;;;;;0.10;0.10;;;;;;;;;;4164826;28;20336;-43
2021/12/05 13:40:03;;;;;;;0.68;0.20;;;;;;;;;;4165217;28;20058;-39
2021/12/05 13:42:22;;;;;;;0.20;0.20;;;;;;;;;;4165133;28;20045;-37
2021/12/05 13:44:23;;;;;;;0.20;0.20;;;;;;;;;;4165233;28;20061;-42
2021/12/05 13:46:35;;;;;;;0.40;0.20;;;;;;;;;;4164916;28;20057;-42
2021/12/05 13:48:41;;;;;;;0.50;0.30;;;;;;;;;;4164817;28;20489;-38
2021/12/05 13:50:51;;;;;;;0.30;0.10;;;;;;;;;;4165036;28;20532;-42
2021/12/05 13:53:16;;;;;;;0.35;0.20;;;;;;;;;;4164401;28;20417;-40
2021/12/05 13:55:40;;;;;;;0.20;0.20;;;;;;;;;;4133776;28;20045;-43
2021/12/05 13:58:15;;;;;;;0.25;0.10;;;;;;;;;;4164637;28;20057;-42
2021/12/05 14:00:42;;;;;;;0.28;0.20;;;;;;;;;;4164557;28;20103;-41
2021/12/05 14:02:54;;;;;;;0.30;0.20;;;;;;;;;;4164447;28;20061;-41
2021/12/05 14:04:56;;;;;;;1.35;0.20;;;;;;;;;;4164839;28;20438;-42
2021/12/05 14:07:01;;;;;;;0.63;0.20;;;;;;;;;;4164783;28;20073;-39
2021/12/05 14:09:25;;;;;;;0.20;0.10;;;;;;;;;;4162951;28;20050;-43
2021/12/05 14:11:28;;;;;;;0.75;0.20;;;;;;;;;;4164658;28;20494;-41
2021/12/05 14:13:29;;;;;;;0.90;0.20;;;;;;;;;;4164674;28;20095;-40
2021/12/05 14:15:30;;;;;;;0.20;0.10;;;;;;;;;;4164538;28;20394;-39
2021/12/05 14:17:43;;;;;;;0.47;0.20;;;;;;;;;;4164718;28;20114;-41
2021/12/05 14:19:59;;;;;;;0.10;0.10;;;;;;;;;;4146930;28;20046;-39
2021/12/05 14:22:03;;;;;;;0.70;0.30;;;;;;;;;;4164544;28;20394;-42
2021/12/05 14:24:05;;;;;;;0.30;0.28;;;;;;;;;;4163863;28;20439;-41
2021/12/05 14:26:17;;;;;;;0.10;0.10;;;;;;;;;;4164415;28;20053;-41
2021/12/05 14:28:18;;;;;;;2.10;0.20;;;;;;;;;;4164195;28;20536;-38
2021/12/05 14:30:22;;;;;;;0.10;0.10;;;;;;;;;;4164475;28;20057;-41
2021/12/05 14:32:31;;;;;;;0.10;0.10;;;;;;;;;;4164209;28;20061;-40
2021/12/05 14:34:33;;;;;;;0.20;0.20;;;;;;;;;;4164197;28;20391;-42
2021/12/05 14:36:38;;;;;;;1.63;0.38;;;;;;;;;;4164328;28;20053;-41
2021/12/05 14:38:39;;;;;;;0.65;0.28;;;;;;;;;;4163608;28;20061;-40
2021/12/05 14:40:40;;;;;;;0.32;0.32;;;;;;;;;;4164544;28;20066;-43
2021/12/05 14:42:44;;;;;;;0.47;0.20;;;;;;;;;;4163980;28;20559;-42
2021/12/05 14:44:49;;;;;;;0.30;0.20;;;;;;;;;;4164444;28;20061;-40
2021/12/05 14:47:03;;;;;;;0.30;0.20;;;;;;;;;;4164127;28;20061;-41
2021/12/05 14:49:05;;;;;;;1.17;0.30;;;;;;;;;;4164169;28;20107;-42
2021/12/05 14:51:07;;;;;;;0.50;0.30;;;;;;;;;;4164175;28;20054;-41
2021/12/05 14:53:10;;;;;;;0.10;0.10;;;;;;;;;;4163505;28;20438;-43
2021/12/05 14:55:13;;;;;;;0.15;0.10;;;;;;;;;;4164316;28;20058;-42
2021/12/05 14:57:18;;;;;;;0.30;0.20;;;;;;;;;;4164076;28;20061;-40
2021/12/05 14:59:19;;;;;;;0.82;0.20;;;;;;;;;;4164225;28;20095;-43
2021/12/05 15:01:27;;;;;;;0.50;0.30;;;;;;;;;;4163853;28;20161;-45
2021/12/05 15:03:29;;;;;;;0.40;0.30;;;;;;;;;;4146347;28;20352;-39
2021/12/05 15:05:31;;;;;;;0.80;0.28;;;;;;;;;;4146493;28;20172;-42
2021/12/05 15:07:32;;;;;;;0.15;0.13;;;;;;;;;;4164333;28;20049;-41
2021/12/05 15:09:42;;;;;;;0.20;0.20;;;;;;;;;;4163418;28;20379;-43
2021/12/05 15:11:56;;;;;;;0.10;0.10;;;;;;;;;;4164013;28;20061;-42
2021/12/05 15:14:06;;;;;;;0.20;0.20;;;;;;;;;;4166912;28;20099;-42
2021/12/05 15:16:07;;;;;;;0.73;0.20;;;;;;;;;;4149632;28;20057;-41
2021/12/05 15:18:24;;;;;;;0.25;0.20;;;;;;;;;;4167096;28;20107;-41
2021/12/05 15:20:29;;;;;;;0.20;0.20;;;;;;;;;;4167306;28;20387;-42
2021/12/05 15:22:30;;;;;;;0.75;0.13;;;;;;;;;;4167382;28;20095;-41
2021/12/05 15:24:32;;;;;;;0.10;0.10;;;;;;;;;;4166551;28;20501;-40
2021/12/05 15:26:33;;;;;;;0.43;0.20;;;;;;;;;;4149918;28;20057;-40
2021/12/05 15:28:36;;;;;;;0.10;0.10;;;;;;;;;;4167194;28;20057;-42
2021/12/05 15:30:40;;;;;;;0.28;0.20;;;;;;;;;;4167039;28;20108;-43
2021/12/05 15:32:42;;;;;;;0.30;0.25;;;;;;;;;;4149347;28;20477;-44
2021/12/05 15:34:43;;;;;;;0.20;0.10;;;;;;;;;;4167286;28;20061;-39
2021/12/05 15:36:44;;;;;;;0.20;0.20;;;;;;;;;;4167123;28;20053;-42
2021/12/05 15:38:46;;;;;;;0.17;0.10;;;;;;;;;;4166603;28;20053;-43
2021/12/05 15:40:54;;;;;;;0.20;0.20;;;;;;;;;;4167294;28;20053;-42
2021/12/05 15:43:15;;;;;;;0.60;0.20;;;;;;;;;;4166996;28;20053;-42
2021/12/05 15:45:19;;;;;;;0.63;0.30;;;;;;;;;;4166896;28;20107;-40
2021/12/05 15:47:27;;;;;;;0.38;0.30;;;;;;;;;;4166876;28;20053;-41
2021/12/05 15:49:45;;;;;;;0.20;0.20;;;;;;;;;;4166830;28;20050;-43
2021/12/05 15:51:48;;;;;;;0.63;0.20;;;;;;;;;;4166817;28;20493;-42
2021/12/05 15:53:50;;;;;;;0.20;0.20;;;;;;;;;;4166140;28;20057;-38
2021/12/05 15:55:59;;;;;;;0.20;0.20;;;;;;;;;;4166670;28;20107;-42
2021/12/05 15:58:08;;;;;;;0.35;0.20;;;;;;;;;;4166549;28;20402;-43
2021/12/05 16:00:18;;;;;;;0.20;0.20;;;;;;;;;;4166900;28;20057;-43
2021/12/05 16:02:20;;;;;;;0.20;0.13;;;;;;;;;;4166713;28;20336;-40
2021/12/05 16:04:21;;;;;;;0.30;0.22;;;;;;;;;;4166432;28;20068;-42
2021/12/05 16:06:40;;;;;;;0.17;0.17;;;;;;;;;;4166549;28;20449;-42
2021/12/05 16:08:43;;;;;;;0.20;0.20;;;;;;;;;;4165909;28;20057;-41
2021/12/05 16:10:57;;;;;;;0.28;0.20;;;;;;;;;;4132679;28;20109;-42
2021/12/05 16:12:58;;;;;;;0.20;0.20;;;;;;;;;;4148804;28;20485;-41
2021/12/05 16:15:03;;;;;;;0.40;0.20;;;;;;;;;;4166456;28;20080;-40
2021/12/05 16:17:27;;;;;;;0.40;0.30;;;;;;;;;;4166390;28;20057;-41
2021/12/05 16:19:30;;;;;;;1.42;0.30;;;;;;;;;;4166404;28;20049;-43
2021/12/05 16:21:33;;;;;;;0.38;0.35;;;;;;;;;;4166492;28;20057;-40
2021/12/05 16:23:35;;;;;;;0.10;0.10;;;;;;;;;;4164970;28;20494;-41
2021/12/05 16:25:54;;;;;;;0.15;0.15;;;;;;;;;;4165458;28;20061;-42
2021/12/05 16:28:02;;;;;;;1.08;0.20;;;;;;;;;;4166014;28;20065;-41
2021/12/05 16:30:04;;;;;;;0.20;0.20;;;;;;;;;;4166169;28;20433;-42
2021/12/05 16:32:05;;;;;;;0.20;0.10;;;;;;;;;;4166194;28;20508;-42
2021/12/05 16:34:09;;;;;;;0.30;0.20;;;;;;;;;;4165887;28;20099;-43
2021/12/05 16:36:13;;;;;;;0.63;0.10;;;;;;;;;;4166068;28;20120;-42
2021/12/05 16:38:25;;;;;;;0.20;0.20;;;;;;;;;;4165686;28;20057;-41
2021/12/05 16:41:18;;;;;;;0.32;0.20;;;;;;;;;;4166117;28;20057;-42
2021/12/05 16:43:19;;;;;;;0.20;0.20;;;;;;;;;;4111909;28;20438;-41
2021/12/05 16:45:21;;;;;;;0.10;0.10;;;;;;;;;;4148465;28;20062;-41
2021/12/05 16:47:25;;;;;;;0.20;0.20;;;;;;;;;;4166313;28;20053;-42
2021/12/05 16:49:34;;;;;;;0.35;0.30;;;;;;;;;;4165802;28;20053;-41
2021/12/05 16:51:43;;;;;;;0.38;0.20;;;;;;;;;;4165969;28;20068;-40
2021/12/05 16:53:47;;;;;;;0.20;0.20;;;;;;;;;;4165306;28;20395;-40
2021/12/05 16:55:56;;;;;;;0.30;0.30;;;;;;;;;;4165750;28;20084;-41
2021/12/05 16:58:14;;;;;;;0.20;0.20;;;;;;;;;;4165557;28;20108;-41
2021/12/05 17:00:20;;;;;;;0.43;0.20;;;;;;;;;;4165925;28;20072;-42
2021/12/05 17:02:36;;;;;;;0.20;0.20;;;;;;;;;;4164527;28;20057;-40
2021/12/05 17:04:49;;;;;;;0.25;0.20;;;;;;;;;;4148081;28;20084;-42
2021/12/05 17:06:54;;;;;;;0.30;0.10;;;;;;;;;;4165778;28;20057;-41
2021/12/05 17:08:55;;;;;;;0.57;0.10;;;;;;;;;;4165227;28;20091;-42
2021/12/05 17:10:58;;;;;;;0.30;0.20;;;;;;;;;;4165718;28;20115;-42
2021/12/05 17:13:33;;;;;;;0.30;0.30;;;;;;;;;;4165315;28;20103;-42
2021/12/05 17:15:36;;;;;;;0.20;0.20;;;;;;;;;;4165511;28;20059;-42
2021/12/05 17:17:39;;;;;;;1.15;0.20;;;;;;;;;;4165323;28;20470;-41
2021/12/05 17:19:40;;;;;;;0.30;0.20;;;;;;;;;;4165683;28;20425;-33
2021/12/05 17:21:47;;;;;;;1.80;0.20;;;;;;;;;;4148186;28;20058;-33
2021/12/05 17:23:55;;;;;;;0.28;0.28;;;;;;;;;;4164817;28;20057;-33
2021/12/05 17:26:14;;;;;;;1.17;0.20;;;;;;;;;;4165350;28;20069;-33
2021/12/05 17:28:43;;;;;;;0.40;0.15;;;;;;;;;;4165561;28;20053;-33
2021/12/05 17:30:53;;;;;;;0.27;0.20;;;;;;;;;;4147937;28;20062;-33
2021/12/05 17:32:54;;;;;;;;;;;;;;;;;;4165781;28;20529;-33
2021/12/05 17:34:58;;;;;;;0.10;0.10;;;;;;;;;;4165277;28;19921;-33
2021/12/05 17:37:06;;;;;;;0.20;0.20;;;;;;;;;;4165216;28;20103;-33
2021/12/05 17:39:14;;;;;;;1.05;0.10;;;;;;;;;;4147122;28;20049;-33
2021/12/05 17:41:16;;;;;;;0.30;0.10;;;;;;;;;;4165092;28;20589;-34
2021/12/05 17:43:17;;;;;;;0.28;0.20;;;;;;;;;;4165037;28;20421;-33
2021/12/05 17:45:18;;;;;;;0.73;0.28;;;;;;;;;;4165353;28;20053;-33
2021/12/05 17:47:20;;;;;;;0.17;0.10;;;;;;;;;;4164167;28;20060;-33